Bei Facebook empfehlenBei Twitter postenGoogle plusPinterest

Das Wetter im Erzgebirge am 10.08.2015

Wetter und Klima am 10.08.2015 Holzhau im Erzgebirge (630m ü.NN)
Letzte gemessene Temperatur und Uhrzeit der Messung23:45:00 Uhr20.90 °C
Temperatur (Maximum / Höchstwert) und Uhrzeit der Messung17:00:00 Uhr33.30 °C
Temperatur (Minimum / Tiefstwert) und Uhrzeit der Messung05:15:0016.10 °C
Errechneter Absolutwert der Temperaturschwankungen zwischen Tmin und Tmax des Tages17.20 K
Errechnete Tagesmitteltemperatur25.13646 °C
Gesamt - Niederschlag des Tages (in flüssiger Form)0.00 Liter / m²
Luftdruck (Maximum / Höchstwert) und Zeitpunkt der Messung00:45:00 Uhr1018.00 hPa
Luftdruck (Minimum / Tiefstwert) und Zeitpunkt der Messung20:30:00 Uhr1014.50 hPa
Errechneter Absolutwert der Luftdruckschwankungen des Tages3.50 hPa
Höchste gemessene Windgeschwindigkeit und Uhrzeit der Messung23:45:00 Uhr0.00 km/h
Errechnete Windhäufigkeit in Relation zu den Messwerten des Tages0.00000 %
Niedrigste Windkühle (Windchill) und Zeitpunkt der Messung05:15:00 Uhr16.10 °C
Taupunkt (Maximum / Höchstwert) und Uhrzeit der Messung08:30:00 Uhr19.70 °C
Taupunkt (Minimum / Tiefstwert) und Uhrzeit der Messung18:15:0012.90 °C
Anzahl der automatisch eingelesenen Messwerte 96

Detaillierte Wetter- und Klima- Messwerte für den 10.08.2015 in Holzhau im Erzgebirge (630m ü.NN)
ZeitTemperaturLuftdruckRel. LuftfeuchteWindWindrichtungWindchillTaupunktNiederschlag l/m²
23:45:0020.90 °C1015.00 hPa69.00 %15.00 °C 
23:30:0020.60 °C1015.00 hPa70.00 %14.90 °C 
23:15:0020.50 °C1015.10 hPa69.00 %14.60 °C 
23:00:0020.80 °C1015.10 hPa69.00 %14.90 °C 
22:45:0021.00 °C1015.30 hPa68.00 %14.90 °C 
22:30:0021.30 °C1015.30 hPa66.00 %14.70 °C 
22:15:0021.50 °C1015.40 hPa65.00 %14.60 °C 
22:00:0021.90 °C1015.10 hPa64.00 %14.80 °C 
21:45:0022.30 °C1015.20 hPa62.00 %14.70 °C 
21:30:0022.90 °C1015.00 hPa61.00 %15.00 °C 
21:15:0023.80 °C1014.90 hPa59.00 %15.30 °C 
21:00:0024.60 °C1014.80 hPa57.00 %15.50 °C 
20:45:0025.80 °C1014.70 hPa54.00 %15.80 °C 
20:30:0026.90 °C1014.50 hPa51.00 %15.90 °C 
20:15:0027.80 °C1014.50 hPa49.00 %16.10 °C 
20:00:0028.40 °C1014.50 hPa47.00 %16.00 °C 
19:45:0029.10 °C1014.60 hPa45.00 %16.00 °C 
19:30:0029.90 °C1014.50 hPa42.00 %15.60 °C 
19:15:0030.90 °C1014.60 hPa35.00 %13.70 °C 
19:00:0031.10 °C1014.50 hPa34.00 %13.40 °C 
18:45:0031.30 °C1014.50 hPa33.00 %13.10 °C 
18:30:0031.30 °C1014.60 hPa33.00 %13.10 °C 
18:15:0031.10 °C1014.80 hPa33.00 %12.90 °C 
18:00:0031.30 °C1014.90 hPa33.00 %13.10 °C 
17:45:0031.90 °C1015.10 hPa32.00 %13.20 °C 
17:30:0032.80 °C1014.90 hPa31.00 %13.40 °C 
17:15:0033.10 °C1015.10 hPa31.00 %13.70 °C 
17:00:0033.30 °C1015.10 hPa30.00 %13.40 °C 
16:45:0033.30 °C1015.20 hPa30.00 %13.40 °C 
16:30:0033.30 °C1015.10 hPa31.00 %13.90 °C 
16:15:0033.00 °C1015.20 hPa32.00 %14.10 °C 
16:00:0033.10 °C1015.30 hPa32.00 %14.20 °C 
15:45:0032.90 °C1015.40 hPa32.00 %14.00 °C 
15:30:0032.70 °C1015.60 hPa33.00 %14.30 °C 
15:15:0032.80 °C1015.70 hPa33.00 %14.40 °C 
15:00:0032.80 °C1015.80 hPa32.00 %13.90 °C 
14:45:0032.70 °C1015.80 hPa34.00 %14.80 °C 
14:30:0032.40 °C1015.90 hPa33.00 %14.10 °C 
14:15:0032.10 °C1015.80 hPa34.00 %14.30 °C 
14:00:0032.10 °C1015.90 hPa37.00 %15.60 °C 
13:45:0031.90 °C1015.80 hPa36.00 %15.00 °C 
13:30:0031.80 °C1015.90 hPa37.00 %15.30 °C 
13:15:0031.90 °C1016.10 hPa37.00 %15.40 °C 
13:00:0031.60 °C1016.20 hPa37.00 %15.10 °C 
12:45:0031.50 °C1016.00 hPa36.00 %14.60 °C 
12:30:0031.30 °C1016.00 hPa37.00 %14.90 °C 
12:15:0031.30 °C1016.40 hPa36.00 %14.40 °C 
12:00:0031.10 °C1016.30 hPa38.00 %15.10 °C 
11:45:0031.10 °C1016.20 hPa38.00 %15.10 °C 
11:30:0031.00 °C1016.50 hPa40.00 %15.80 °C 
11:15:0030.60 °C1016.30 hPa41.00 %15.80 °C 
11:00:0030.30 °C1016.40 hPa42.00 %16.00 °C 
10:45:0029.90 °C1016.50 hPa44.00 %16.30 °C 
10:30:0029.40 °C1016.40 hPa46.00 %16.60 °C 
10:15:0029.10 °C1016.50 hPa49.00 %17.30 °C 
10:00:0028.50 °C1016.60 hPa50.00 %17.10 °C 
09:45:0027.90 °C1016.40 hPa51.00 %16.80 °C 
09:30:0027.40 °C1016.40 hPa56.00 %17.80 °C 
09:15:0026.60 °C1016.40 hPa63.00 %19.00 °C 
09:00:0025.80 °C1016.20 hPa67.00 %19.20 °C 
08:45:0025.00 °C1016.20 hPa72.00 %19.60 °C 
08:30:0024.40 °C1016.30 hPa75.00 %19.70 °C 
08:15:0023.60 °C1016.10 hPa78.00 %19.50 °C 
08:00:0022.90 °C1016.10 hPa82.00 %19.70 °C 
07:45:0021.60 °C1016.20 hPa87.00 %19.30 °C 
07:30:0019.80 °C1016.20 hPa91.00 %18.30 °C 
07:15:0017.90 °C1016.30 hPa90.00 %16.20 °C 
07:00:0017.30 °C1016.30 hPa90.00 %15.60 °C 
06:45:0016.90 °C1016.40 hPa90.00 %15.20 °C 
06:30:0016.80 °C1016.30 hPa90.00 %15.20 °C 
06:15:0016.70 °C1016.30 hPa90.00 %15.10 °C 
06:00:0016.70 °C1016.20 hPa90.00 %15.10 °C 
05:45:0016.60 °C1016.20 hPa90.00 %15.00 °C 
05:30:0016.40 °C1016.10 hPa90.00 %14.80 °C 
05:15:0016.10 °C1016.20 hPa89.00 %14.30 °C 
05:00:0016.10 °C1016.30 hPa89.00 %14.30 °C 
04:45:0016.20 °C1016.40 hPa88.00 %14.20 °C 
04:30:0016.40 °C1016.40 hPa88.00 %14.40 °C 
04:15:0016.60 °C1016.50 hPa88.00 %14.60 °C 
04:00:0016.80 °C1016.50 hPa88.00 %14.80 °C 
03:45:0016.70 °C1016.80 hPa87.00 %14.50 °C 
03:30:0016.90 °C1016.80 hPa87.00 %14.70 °C 
03:15:0017.20 °C1016.90 hPa86.00 %14.80 °C 
03:00:0017.40 °C1017.00 hPa86.00 %15.00 °C 
02:45:0017.60 °C1017.10 hPa85.00 %15.00 °C 
02:30:0017.90 °C1017.40 hPa84.00 %15.20 °C 
02:15:0018.40 °C1017.40 hPa83.00 %15.50 °C 
02:00:0018.80 °C1017.60 hPa83.00 %15.90 °C 
01:45:0019.30 °C1017.50 hPa82.00 %16.20 °C 
01:30:0019.60 °C1017.60 hPa82.00 %16.40 °C 
01:15:0019.80 °C1017.80 hPa82.00 %16.60 °C 
01:00:0020.10 °C1017.80 hPa81.00 %16.70 °C 
00:45:0020.30 °C1018.00 hPa81.00 %16.90 °C 
00:30:0020.30 °C1017.90 hPa81.00 %16.90 °C 
00:15:0020.30 °C1017.90 hPa81.00 %16.90 °C 
00:00:0020.40 °C1017.90 hPa80.00 %16.80 °C 

Permanenter Link zu dieser Seite: Wetter im Erzgebirge am 10.08.2015
Performance-Info: Die Erstellung der Seite / Statistik(en) / Tabelle(n) erforderte 5 Datenbankserver-Abfrage(n) und dauerte 99 Millisekunden. (Dieser Messwert ist von der Gesamt-Auslastung des Servers abhängig.)
Erzgebirge - Wetter | Erzgebirge - Wetter (Mobilgeräte) | Komplette Klimadatenbank